Time;durP1;ratioP1;P1;durP2;ratioP2;P2;SDS_P1;SDS_P2;PMS_P1;PMS_P2;Temp;Humidity;BMP_temperature;BMP_pressure;BME280_temperature;BME280_humidity;BME280_pressure;Samples;Min_cycle;Max_cycle;Signal;HPM_P1;HPM_P2
2023/04/21 13:09:49;;;;;;;;;;;18.90;76.00;;;;;;5113946;27;20100;-76
2023/04/21 13:12:16;;;;;;;;;;;18.70;77.20;;;;;;5070188;28;19912;-76
2023/04/21 13:14:41;;;;;;;3.42;3.13;;;18.50;77.90;;;;;;5059238;28;19974;-78
2023/04/21 13:17:08;;;;;;;4.00;3.33;;;18.30;77.70;;;;;;5058365;28;20442;-77
2023/04/21 13:19:33;;;;;;;6.78;3.13;;;18.30;82.40;;;;;;5066230;28;20501;-78
2023/04/21 13:21:59;;;;;;;3.22;2.92;;;18.50;80.50;;;;;;5059859;28;20048;-79
2023/04/21 13:24:25;;;;;;;3.85;3.22;;;18.80;79.10;;;;;;5056192;28;20025;-76
2023/04/21 13:26:51;;;;;;;3.03;2.70;;;19.00;76.50;;;;;;5056694;28;20033;-78
2023/04/21 13:29:17;;;;;;;9.60;2.80;;;19.10;74.50;;;;;;5055169;28;20041;-79
2023/04/21 13:31:43;;;;;;;3.28;2.70;;;19.20;72.30;;;;;;5058466;28;20028;-76
2023/04/21 13:34:09;;;;;;;5.70;2.92;;;19.00;71.70;;;;;;5063941;28;20029;-78
2023/04/21 13:36:34;;;;;;;4.72;2.83;;;18.90;73.80;;;;;;5059549;28;20486;-76
2023/04/21 13:39:00;;;;;;;3.08;2.58;;;18.90;72.80;;;;;;5064433;28;20171;-78
2023/04/21 13:41:26;;;;;;;39.65;4.78;;;18.90;74.00;;;;;;5058238;28;20036;-79
2023/04/21 13:43:52;;;;;;;5.63;2.88;;;19.00;74.20;;;;;;5063984;28;20411;-77
2023/04/21 13:46:19;;;;;;;2.97;2.75;;;19.00;73.10;;;;;;5060071;28;20236;-78
2023/04/21 13:48:45;;;;;;;3.40;2.50;;;19.10;74.80;;;;;;5076291;28;20480;-77
2023/04/21 13:51:10;;;;;;;3.28;2.40;;;19.20;72.80;;;;;;5072152;28;20035;-77
2023/04/21 13:53:36;;;;;;;2.50;2.30;;;19.30;73.30;;;;;;5064288;28;20108;-78
2023/04/21 13:56:02;;;;;;;2.50;2.30;;;19.60;71.40;;;;;;5064367;28;20123;-78
2023/04/21 13:58:29;;;;;;;3.88;2.65;;;19.80;69.00;;;;;;5071277;28;20037;-79
2023/04/21 14:00:55;;;;;;;6.38;2.75;;;20.00;70.80;;;;;;5071885;28;20066;-78
2023/04/21 14:03:21;;;;;;;2.55;2.22;;;20.00;67.30;;;;;;5069969;28;20694;-78
2023/04/21 14:05:47;;;;;;;10.38;3.40;;;20.00;67.70;;;;;;5067065;28;20196;-77
2023/04/21 14:08:13;;;;;;;8.52;3.00;;;19.80;69.80;;;;;;5065779;28;20056;-79
2023/04/21 14:10:38;;;;;;;4.07;2.83;;;19.60;69.20;;;;;;5064661;28;20043;-78
2023/04/21 14:13:04;;;;;;;7.05;3.28;;;19.40;70.30;;;;;;5064320;28;20490;-78
2023/04/21 14:15:30;;;;;;;4.57;2.72;;;19.30;71.60;;;;;;5069303;28;20116;-78
2023/04/21 14:17:56;;;;;;;3.78;2.65;;;19.20;72.40;;;;;;5066798;28;20033;-78
2023/04/21 14:20:22;;;;;;;3.47;3.03;;;19.10;70.70;;;;;;5056871;28;20048;-79
2023/04/21 14:22:47;;;;;;;3.38;3.05;;;19.00;71.70;;;;;;5053458;28;20041;-78
2023/04/21 14:25:13;;;;;;;4.03;2.83;;;18.90;71.70;;;;;;5053250;28;20033;-78
2023/04/21 14:27:39;;;;;;;2.78;2.50;;;18.90;71.30;;;;;;5050431;28;20041;-77
2023/04/21 14:30:06;;;;;;;2.70;2.50;;;18.80;72.30;;;;;;5050735;28;20090;-78
2023/04/21 14:32:31;;;;;;;4.25;2.85;;;18.70;71.30;;;;;;5034298;28;20091;-78
2023/04/21 14:34:58;;;;;;;3.20;2.90;;;18.60;74.10;;;;;;5019127;22;20038;-87
2023/04/21 14:37:25;;;;;;;4.88;3.10;;;18.50;73.00;;;;;;4993053;28;20078;-87
2023/04/21 14:39:51;;;;;;;3.13;2.83;;;18.50;73.70;;;;;;4966494;28;20476;-88
2023/04/21 14:42:17;;;;;;;4.20;2.83;;;18.40;71.90;;;;;;4982121;28;20039;-86
2023/04/21 14:44:43;;;;;;;5.60;2.58;;;18.40;73.60;;;;;;4954033;28;20230;-87
2023/04/21 14:47:11;;;;;;;2.78;2.20;;;18.60;75.30;;;;;;4953709;28;20553;-88
2023/04/21 14:49:38;;;;;;;2.40;2.13;;;18.80;72.60;;;;;;4987657;28;20173;-87
2023/04/21 14:52:04;;;;;;;2.47;2.20;;;18.90;69.70;;;;;;4957082;28;20046;-88
2023/04/21 14:54:30;;;;;;;2.45;2.25;;;18.90;71.00;;;;;;4956493;28;20211;-86
2023/04/21 14:56:56;;;;;;;5.00;2.63;;;19.00;71.20;;;;;;4972532;28;20717;-86
2023/04/21 14:59:22;;;;;;;3.03;2.40;;;18.90;68.50;;;;;;4964195;28;20093;-86
2023/04/21 15:02:09;;;;;;;5.40;2.55;;;18.80;69.60;;;;;;4966097;28;20053;-87
2023/04/21 15:04:35;;;;;;;2.90;2.70;;;18.80;70.90;;;;;;4979953;28;20039;-87
2023/04/21 15:07:02;;;;;;;2.65;2.45;;;18.80;70.00;;;;;;4966770;28;20027;-86
2023/04/21 15:09:28;;;;;;;3.45;2.70;;;18.80;71.10;;;;;;4986320;28;20459;-85
2023/04/21 15:11:54;;;;;;;5.05;2.45;;;18.80;70.90;;;;;;4972178;28;20063;-86
2023/04/21 15:14:21;;;;;;;2.55;2.22;;;18.80;69.30;;;;;;4931865;28;20043;-86
2023/04/21 15:16:46;;;;;;;4.05;2.92;;;18.80;69.90;;;;;;4956674;28;20098;-86
2023/04/21 15:19:12;;;;;;;7.40;2.75;;;18.70;70.40;;;;;;4947375;28;20039;-86
2023/04/21 15:21:39;;;;;;;2.88;2.50;;;18.50;71.70;;;;;;4986273;28;20023;-86
2023/04/21 15:24:05;;;;;;;3.95;3.55;;;18.50;71.90;;;;;;4972351;28;20524;-87
2023/04/21 15:26:31;;;;;;;5.43;3.67;;;18.50;71.10;;;;;;4971675;28;20057;-87
2023/04/21 15:28:57;;;;;;;3.63;2.97;;;18.50;74.50;;;;;;4973491;28;20043;-87
2023/04/21 15:31:23;;;;;;;4.55;3.30;;;18.40;71.30;;;;;;4992719;28;20034;-86
2023/04/21 15:33:49;;;;;;;3.53;3.22;;;18.30;74.00;;;;;;4966614;28;20381;-86
2023/04/21 15:36:15;;;;;;;3.10;2.85;;;18.20;73.20;;;;;;4971759;28;20125;-85
2023/04/21 15:38:41;;;;;;;4.30;2.63;;;18.10;72.50;;;;;;4939680;28;20093;-86
2023/04/21 15:41:07;;;;;;;4.22;3.40;;;18.10;72.80;;;;;;4973251;28;20126;-86
2023/04/21 15:43:34;;;;;;;4.97;3.70;;;18.20;74.20;;;;;;4952821;28;20027;-87
2023/04/21 15:46:00;;;;;;;3.58;3.28;;;18.20;74.70;;;;;;4987893;28;20031;-85
2023/04/21 15:48:25;;;;;;;11.20;8.45;;;18.30;73.60;;;;;;4959768;28;20094;-85
2023/04/21 15:50:52;;;;;;;4.05;2.85;;;18.30;74.20;;;;;;4930577;29;20063;-86
2023/04/21 15:53:17;;;;;;;4.38;3.35;;;18.30;73.60;;;;;;4963354;28;20424;-86
2023/04/21 15:55:43;;;;;;;4.88;3.00;;;18.40;74.80;;;;;;4974631;28;20041;-86
2023/04/21 15:58:12;;;;;;;3.50;2.85;;;18.40;72.60;;;;;;4956710;28;20038;-86
2023/04/21 16:00:40;;;;;;;3.47;2.63;;;18.40;72.60;;;;;;4978967;28;20145;-85
2023/04/21 16:03:06;;;;;;;3.47;2.85;;;18.40;72.60;;;;;;4980006;28;20126;-86
2023/04/21 16:05:32;;;;;;;5.05;3.35;;;18.40;74.00;;;;;;4984897;28;20039;-87
2023/04/21 16:07:58;;;;;;;5.07;4.05;;;18.30;74.90;;;;;;4979913;28;20038;-86
2023/04/21 16:10:24;;;;;;;4.80;3.65;;;18.20;73.70;;;;;;4987823;28;20041;-86
2023/04/21 16:12:50;;;;;;;4.93;3.00;;;18.10;74.40;;;;;;4975432;28;20400;-86
2023/04/21 16:15:19;;;;;;;5.82;3.65;;;18.10;73.50;;;;;;4968315;28;20134;-86
2023/04/21 16:17:44;;;;;;;4.40;3.65;;;18.10;72.70;;;;;;4976992;28;20035;-86
2023/04/21 16:20:11;;;;;;;3.92;3.63;;;18.10;74.40;;;;;;4978761;28;20030;-86
2023/04/21 16:22:37;;;;;;;6.50;5.03;;;18.00;73.20;;;;;;4968631;28;20707;-87
2023/04/21 16:25:03;;;;;;;4.68;4.20;;;18.00;73.80;;;;;;4964154;28;20027;-86
2023/04/21 16:27:29;;;;;;;4.22;3.40;;;17.90;74.90;;;;;;4962978;28;20030;-86
2023/04/21 16:29:55;;;;;;;4.25;3.28;;;17.90;76.00;;;;;;4964593;28;20109;-87
2023/04/21 16:32:21;;;;;;;3.88;2.92;;;17.80;75.90;;;;;;4963687;28;20135;-86
2023/04/21 16:34:47;;;;;;;6.93;3.55;;;17.70;74.90;;;;;;4973105;28;20035;-88
2023/04/21 16:37:12;;;;;;;7.05;3.30;;;17.60;75.00;;;;;;4978975;28;20039;-85
2023/04/21 16:39:38;;;;;;;2.97;2.63;;;17.60;75.10;;;;;;4959957;28;20031;-87
2023/04/21 16:44:22;;;;;;;;;;;17.50;75.70;;;;;;5101960;27;20213;-81
2023/04/21 16:46:47;;;;;;;;;;;17.50;74.60;;;;;;5087681;28;19944;-80
2023/04/21 16:49:14;;;;;;;3.97;3.40;;;17.40;74.40;;;;;;5071597;28;19916;-81
2023/04/21 16:51:43;;;;;;;4.93;3.40;;;17.50;74.40;;;;;;5070032;28;20033;-80
2023/04/21 16:54:12;;;;;;;3.97;3.22;;;17.50;73.50;;;;;;5069274;28;20032;-81
2023/04/21 16:56:38;;;;;;;5.55;3.15;;;17.50;73.70;;;;;;5068137;28;20068;-82
2023/04/21 16:59:05;;;;;;;5.60;2.70;;;17.40;73.20;;;;;;5065100;28;20127;-85
2023/04/21 17:01:31;;;;;;;3.85;2.97;;;17.40;72.50;;;;;;5064310;28;20093;-83
2023/04/21 17:03:57;;;;;;;2.85;2.40;;;17.40;74.00;;;;;;5072180;28;20028;-80
2023/04/21 17:06:23;;;;;;;2.85;2.58;;;17.40;74.50;;;;;;5097024;28;20492;-81
2023/04/21 17:08:49;;;;;;;2.97;2.50;;;17.30;75.10;;;;;;5066454;28;20107;-83
2023/04/21 17:11:15;;;;;;;4.55;2.70;;;17.30;74.60;;;;;;5066946;28;20043;-80
2023/04/21 17:13:41;;;;;;;7.47;3.10;;;17.30;74.60;;;;;;5084959;28;20040;-80
2023/04/21 17:16:07;;;;;;;9.90;5.00;;;17.30;75.40;;;;;;5082785;28;20476;-81
2023/04/21 17:18:33;;;;;;;5.32;4.18;;;17.30;74.40;;;;;;5084269;28;20029;-80
2023/04/21 17:20:58;;;;;;;10.10;3.35;;;17.20;74.40;;;;;;5067848;28;20119;-82
2023/04/21 17:23:24;;;;;;;3.92;2.92;;;17.20;74.40;;;;;;5069150;28;20123;-80
2023/04/21 17:25:50;;;;;;;4.20;3.42;;;17.20;75.20;;;;;;5070301;28;20392;-81
2023/04/21 17:28:17;;;;;;;4.05;3.08;;;17.20;76.00;;;;;;5047953;28;20025;-79
2023/04/21 17:30:43;;;;;;;3.67;3.03;;;17.20;74.10;;;;;;5082184;28;20632;-80
2023/04/21 17:33:09;;;;;;;5.78;3.03;;;17.10;75.00;;;;;;5084837;28;20029;-82
2023/04/21 17:35:35;;;;;;;3.97;3.17;;;17.10;75.40;;;;;;5084036;28;20086;-80
2023/04/21 17:38:01;;;;;;;3.17;2.88;;;17.00;74.20;;;;;;5097715;28;20037;-80
2023/04/21 17:40:27;;;;;;;5.18;2.60;;;17.00;74.30;;;;;;5068918;28;20070;-80
2023/04/21 17:42:53;;;;;;;3.15;2.72;;;16.90;74.60;;;;;;5084743;28;20060;-80
2023/04/21 17:45:19;;;;;;;5.10;3.08;;;16.90;74.80;;;;;;5082798;28;20035;-78
2023/04/21 17:47:44;;;;;;;4.88;3.00;;;16.80;73.80;;;;;;5073015;28;20068;-80
2023/04/21 17:50:12;;;;;;;6.43;4.60;;;16.80;74.30;;;;;;5063728;28;20037;-79
2023/04/21 17:52:39;;;;;;;4.65;3.05;;;16.80;74.10;;;;;;5086627;28;20028;-80
2023/04/21 17:55:05;;;;;;;5.70;3.22;;;16.70;74.20;;;;;;5075768;28;20476;-81
2023/04/21 17:57:30;;;;;;;5.30;3.47;;;16.70;74.40;;;;;;5090568;28;20060;-80
2023/04/21 17:59:57;;;;;;;3.97;3.55;;;16.60;74.70;;;;;;5077130;28;20062;-80
2023/04/21 18:02:23;;;;;;;3.50;3.20;;;16.60;75.30;;;;;;5070759;28;20436;-81
2023/04/21 18:04:49;;;;;;;7.15;3.60;;;16.50;74.70;;;;;;5050725;28;20411;-81
2023/04/21 18:07:15;;;;;;;4.18;3.50;;;16.40;75.10;;;;;;5072083;28;20071;-80
2023/04/21 18:09:41;;;;;;;3.75;2.70;;;16.40;75.50;;;;;;5072701;28;20052;-81
2023/04/21 18:12:06;;;;;;;6.55;3.65;;;16.30;75.00;;;;;;5068712;28;20035;-81
2023/04/21 18:14:32;;;;;;;3.45;3.13;;;16.30;76.10;;;;;;5048289;28;20133;-83
2023/04/21 18:16:58;;;;;;;6.05;3.92;;;16.20;77.30;;;;;;5065380;28;20028;-82
2023/04/21 18:19:24;;;;;;;5.15;4.18;;;16.10;76.60;;;;;;5038529;28;20043;-80
2023/04/21 18:21:49;;;;;;;6.65;4.05;;;16.10;78.00;;;;;;5066399;28;20429;-83
2023/04/21 18:24:15;;;;;;;23.38;13.80;;;15.90;77.90;;;;;;5050914;28;20090;-82
2023/04/21 18:26:41;;;;;;;12.15;8.32;;;15.80;78.70;;;;;;5055600;28;20158;-83
2023/04/21 18:29:07;;;;;;;5.90;3.67;;;15.70;78.90;;;;;;5069993;28;20024;-83
2023/04/21 18:31:33;;;;;;;6.13;3.83;;;15.60;79.50;;;;;;5070581;28;20032;-79
2023/04/21 18:33:59;;;;;;;8.18;4.90;;;15.50;78.50;;;;;;5056249;28;20040;-81
2023/04/21 18:36:24;;;;;;;5.65;3.72;;;15.50;78.60;;;;;;5072659;28;20537;-80
2023/04/21 18:38:50;;;;;;;5.10;3.28;;;15.50;80.20;;;;;;5068827;28;20025;-81
2023/04/21 18:41:16;;;;;;;6.38;3.70;;;15.40;80.80;;;;;;5067240;28;20123;-80
2023/04/21 18:43:42;;;;;;;7.32;3.88;;;15.30;81.10;;;;;;5031666;28;20452;-80
2023/04/21 18:46:08;;;;;;;3.80;3.30;;;15.30;81.20;;;;;;5094006;28;20040;-81
2023/04/21 18:48:33;;;;;;;6.32;3.90;;;15.10;81.60;;;;;;5052404;28;20039;-80
2023/04/21 18:50:59;;;;;;;6.30;3.88;;;15.00;81.00;;;;;;5064072;28;20024;-81
2023/04/21 18:53:25;;;;;;;5.28;3.45;;;15.00;82.00;;;;;;5081693;28;20056;-81
2023/04/21 18:55:51;;;;;;;6.07;3.70;;;14.90;82.40;;;;;;5066965;28;20039;-82
2023/04/21 18:58:17;;;;;;;4.63;3.08;;;14.80;83.00;;;;;;5075026;28;20043;-82
2023/04/21 19:00:43;;;;;;;4.50;3.55;;;14.70;83.20;;;;;;5038132;28;20040;-80
2023/04/21 19:03:09;;;;;;;4.15;3.13;;;14.60;83.40;;;;;;5064495;28;20086;-81
2023/04/21 19:05:36;;;;;;;4.57;3.05;;;14.60;84.00;;;;;;5064425;28;20032;-82
2023/04/21 19:08:02;;;;;;;3.15;2.85;;;14.50;84.50;;;;;;5047300;28;20427;-80
2023/04/21 19:10:28;;;;;;;6.57;3.22;;;14.40;85.40;;;;;;5051025;28;20121;-82
2023/04/21 19:12:53;;;;;;;4.05;3.30;;;14.30;86.10;;;;;;5052054;28;20063;-83
2023/04/21 19:15:21;;;;;;;6.63;3.63;;;14.10;86.30;;;;;;5047942;28;20412;-82
2023/04/21 19:17:46;;;;;;;5.78;4.10;;;14.00;86.40;;;;;;5067793;28;20040;-82
2023/04/21 19:20:12;;;;;;;7.75;3.53;;;14.00;87.50;;;;;;5065346;28;20040;-81
2023/04/21 19:22:38;;;;;;;5.05;3.17;;;13.90;87.80;;;;;;5050461;28;20037;-82
2023/04/21 19:25:05;;;;;;;4.93;3.75;;;13.70;87.90;;;;;;5081412;28;20028;-81
2023/04/21 19:27:30;;;;;;;4.90;3.25;;;13.60;88.60;;;;;;5068446;28;20079;-81
2023/04/21 19:29:59;;;;;;;6.60;3.78;;;13.50;89.10;;;;;;5068819;28;20063;-80
2023/04/21 19:32:25;;;;;;;4.63;3.15;;;13.40;89.70;;;;;;5051925;28;20089;-81
2023/04/21 19:34:51;;;;;;;3.75;3.20;;;13.40;90.00;;;;;;5068990;28;20112;-81
2023/04/21 19:37:17;;;;;;;4.57;3.45;;;13.30;90.10;;;;;;5066031;28;20626;-81
2023/04/21 19:39:43;;;;;;;5.35;3.47;;;13.30;90.20;;;;;;5034702;28;20165;-80
2023/04/21 19:42:09;;;;;;;5.28;3.60;;;13.30;90.40;;;;;;5069093;28;20029;-81
2023/04/21 19:44:54;;;;;;;4.93;3.20;;;13.20;90.40;;;;;;5055149;28;20048;-80
2023/04/21 19:47:20;;;;;;;7.75;4.40;;;13.20;90.50;;;;;;5052750;28;20028;-80
2023/04/21 19:49:46;;;;;;;4.25;3.70;;;13.20;90.40;;;;;;5064950;28;20126;-81
2023/04/21 19:52:11;;;;;;;5.82;3.45;;;13.30;90.50;;;;;;5067978;28;20043;-80
2023/04/21 19:54:37;;;;;;;4.10;3.40;;;13.20;90.50;;;;;;5035746;28;20063;-81
2023/04/21 19:57:03;;;;;;;5.55;3.47;;;13.20;90.40;;;;;;5019910;28;20032;-80
2023/04/21 19:59:29;;;;;;;6.60;4.03;;;13.10;90.80;;;;;;5052308;28;20032;-81
2023/04/21 20:01:55;;;;;;;4.55;3.72;;;13.10;90.90;;;;;;5068562;28;20062;-80
2023/04/21 20:04:20;;;;;;;7.50;4.95;;;13.10;91.00;;;;;;5067040;28;20037;-81
2023/04/21 20:06:46;;;;;;;7.68;5.18;;;13.00;90.90;;;;;;5077311;28;20029;-80
2023/04/21 20:09:12;;;;;;;7.85;5.10;;;13.00;91.10;;;;;;5061224;28;20679;-79
2023/04/21 20:11:38;;;;;;;9.85;5.30;;;12.90;91.00;;;;;;5038500;28;20448;-81
2023/04/21 20:14:03;;;;;;;7.82;4.65;;;12.90;91.20;;;;;;5054384;28;20044;-81
2023/04/21 20:16:30;;;;;;;12.55;4.90;;;12.90;91.30;;;;;;5043827;28;20118;-79
2023/04/21 20:18:56;;;;;;;9.35;4.75;;;12.90;91.40;;;;;;5061546;28;20035;-80
2023/04/21 20:21:21;;;;;;;5.82;4.85;;;12.80;91.50;;;;;;5032540;28;20123;-80
2023/04/21 20:23:47;;;;;;;4.97;4.18;;;12.80;91.60;;;;;;5063294;28;20408;-80
2023/04/21 20:26:13;;;;;;;7.75;4.25;;;12.80;91.50;;;;;;5053798;28;20039;-80
2023/04/21 20:28:38;;;;;;;8.30;4.30;;;12.70;91.80;;;;;;5063281;28;20511;-80
2023/04/21 20:31:04;;;;;;;5.45;4.00;;;12.80;91.80;;;;;;5073637;28;20036;-81
2023/04/21 20:33:30;;;;;;;7.20;4.45;;;12.70;92.00;;;;;;5061698;28;20120;-80
2023/04/21 20:38:33;;;;;;;7.27;3.73;;;12.70;92.20;;;;;;5004061;28;20132;-79
2023/04/21 20:41:00;;;;;;;6.78;4.38;;;12.60;92.00;;;;;;5003975;28;20049;-79
2023/04/21 20:43:26;;;;;;;5.55;3.90;;;12.60;92.10;;;;;;5010772;28;20041;-79
2023/04/21 20:45:53;;;;;;;4.72;3.47;;;12.50;92.40;;;;;;5009908;28;20025;-79
2023/04/21 20:48:18;;;;;;;6.30;3.80;;;12.50;92.60;;;;;;5039360;28;20096;-78
2023/04/21 20:50:44;;;;;;;6.97;3.95;;;12.50;92.60;;;;;;5004708;28;20292;-79
2023/04/21 20:53:10;;;;;;;6.60;3.75;;;12.40;92.70;;;;;;5021041;28;20029;-80
2023/04/21 20:55:36;;;;;;;6.82;3.85;;;12.40;92.70;;;;;;5025472;28;20499;-78
2023/04/21 20:58:03;;;;;;;9.65;3.72;;;12.20;92.70;;;;;;5024277;28;20032;-78
2023/04/21 21:00:31;;;;;;;4.93;3.97;;;12.20;93.10;;;;;;5018144;28;20157;-78
2023/04/21 21:02:58;;;;;;;6.00;3.72;;;12.10;93.30;;;;;;5023056;28;20034;-79
2023/04/21 21:05:23;;;;;;;7.50;3.78;;;12.00;93.50;;;;;;5025607;28;20026;-79
2023/04/21 21:07:49;;;;;;;8.43;3.83;;;11.90;93.50;;;;;;5013877;28;20029;-77
2023/04/21 21:10:15;;;;;;;7.95;3.78;;;11.70;93.60;;;;;;5016659;28;20029;-78
2023/04/21 21:12:41;;;;;;;5.57;3.95;;;11.60;94.00;;;;;;5011311;28;20033;-79
2023/04/21 21:15:07;;;;;;;6.63;3.83;;;11.50;94.20;;;;;;5020068;28;20030;-78
2023/04/21 21:17:32;;;;;;;4.78;3.80;;;11.40;94.30;;;;;;5028051;28;20176;-79
2023/04/21 21:19:58;;;;;;;5.18;3.88;;;11.40;94.80;;;;;;5018094;28;20061;-77
2023/04/21 21:22:24;;;;;;;7.55;4.25;;;11.30;94.90;;;;;;5003759;28;20034;-79
2023/04/21 21:24:50;;;;;;;5.22;3.53;;;11.30;94.90;;;;;;5017329;28;20193;-79
2023/04/21 21:27:16;;;;;;;6.72;4.13;;;11.30;95.00;;;;;;5020714;28;20117;-79
2023/04/21 21:29:42;;;;;;;4.93;3.47;;;11.30;95.00;;;;;;5018452;28;20045;-78
2023/04/21 21:32:07;;;;;;;5.35;4.05;;;11.20;95.20;;;;;;5023210;28;20049;-79
2023/04/21 21:34:33;;;;;;;4.07;3.53;;;11.20;95.30;;;;;;5020290;28;20045;-77
2023/04/21 21:36:59;;;;;;;4.88;3.75;;;11.10;95.50;;;;;;5014695;28;20073;-79
2023/04/21 21:39:26;;;;;;;6.35;3.92;;;11.10;95.60;;;;;;5040184;28;20377;-78
2023/04/21 21:41:51;;;;;;;7.63;3.67;;;11.10;95.80;;;;;;5026004;28;20033;-78
2023/04/21 21:44:17;;;;;;;5.80;3.85;;;11.00;95.80;;;;;;5008622;28;20559;-78
2023/04/21 21:46:43;;;;;;;8.13;3.38;;;11.00;95.80;;;;;;5030681;28;20096;-78
2023/04/21 21:49:09;;;;;;;4.68;3.38;;;11.00;96.10;;;;;;5011497;28;20473;-78
2023/04/21 21:51:35;;;;;;;5.70;3.75;;;11.00;96.20;;;;;;5036732;28;20030;-77
2023/04/21 21:54:01;;;;;;;5.35;4.40;;;11.00;96.10;;;;;;5010028;28;20033;-78
2023/04/21 21:56:27;;;;;;;8.13;4.53;;;10.90;96.20;;;;;;5024980;28;20029;-78
2023/04/21 21:58:53;;;;;;;6.05;3.60;;;10.90;96.20;;;;;;5026621;28;20048;-78
2023/04/21 22:01:19;;;;;;;7.70;4.72;;;10.80;96.30;;;;;;5026242;28;20053;-77
2023/04/21 22:03:45;;;;;;;4.10;3.55;;;10.70;96.80;;;;;;5044649;28;20109;-79
2023/04/21 22:06:12;;;;;;;6.13;3.97;;;10.70;96.80;;;;;;5038158;28;20025;-79
2023/04/21 22:08:37;;;;;;;;;;;10.70;97.00;;;;;;5039748;28;20041;-78
2023/04/21 22:11:04;;;;;;;6.40;3.70;;;10.60;97.10;;;;;;5022242;28;20180;-79
2023/04/21 22:13:31;;;;;;;7.30;3.92;;;10.50;97.30;;;;;;5021201;28;20049;-78
2023/04/21 22:15:56;;;;;;;7.03;4.13;;;10.50;97.70;;;;;;5021693;28;20402;-78
2023/04/21 22:18:22;;;;;;;6.05;3.28;;;10.40;97.80;;;;;;5026963;28;20030;-79
2023/04/21 22:20:48;;;;;;;5.15;4.07;;;10.40;98.00;;;;;;5027105;28;20057;-78
2023/04/21 22:23:14;;;;;;;4.50;3.70;;;10.30;98.20;;;;;;5019553;28;20033;-78
2023/04/21 22:25:39;;;;;;;6.72;3.80;;;10.30;98.30;;;;;;5034736;28;20029;-79
2023/04/21 22:28:05;;;;;;;7.35;3.75;;;10.30;98.60;;;;;;5022765;28;20072;-78
2023/04/21 22:30:31;;;;;;;7.28;3.80;;;10.30;98.50;;;;;;5018139;28;20045;-79
2023/04/21 22:32:57;;;;;;;5.32;3.53;;;10.30;98.60;;;;;;5027080;28;20061;-77
2023/04/21 22:35:22;;;;;;;4.75;3.63;;;10.40;98.80;;;;;;5022227;28;20773;-78
2023/04/21 22:37:48;;;;;;;7.65;4.45;;;10.30;98.50;;;;;;5024721;28;20610;-78
2023/04/21 22:40:14;;;;;;;4.57;3.38;;;10.20;98.80;;;;;;5023722;28;20045;-78
2023/04/21 22:42:40;;;;;;;7.47;3.88;;;10.20;99.00;;;;;;5019592;28;20116;-79
2023/04/21 22:45:07;;;;;;;11.57;4.25;;;10.20;99.10;;;;;;5023960;28;20068;-80
2023/04/21 22:47:33;;;;;;;6.30;3.88;;;10.10;99.20;;;;;;5023824;28;20041;-79
2023/04/21 22:49:59;;;;;;;10.52;4.13;;;10.10;99.50;;;;;;5031004;28;20485;-79
2023/04/21 22:52:27;;;;;;;5.30;3.80;;;10.10;99.40;;;;;;5027249;28;20063;-79
2023/04/21 22:54:53;;;;;;;4.75;3.80;;;10.10;99.70;;;;;;5025607;28;20037;-78
2023/04/21 22:57:20;;;;;;;6.68;3.63;;;10.20;99.60;;;;;;5033394;28;20030;-78
2023/04/21 22:59:46;;;;;;;6.63;4.00;;;10.20;99.50;;;;;;5025720;28;20033;-78
2023/04/21 23:02:12;;;;;;;6.40;3.92;;;10.20;99.40;;;;;;5024882;28;20113;-78
2023/04/21 23:04:38;;;;;;;4.57;3.85;;;10.10;99.70;;;;;;5028879;28;20563;-79
2023/04/21 23:07:04;;;;;;;5.65;3.42;;;10.10;99.60;;;;;;5026945;28;20081;-78
2023/04/21 23:09:30;;;;;;;8.07;3.60;;;10.10;99.50;;;;;;5042718;28;20054;-78
2023/04/21 23:11:55;;;;;;;4.38;3.85;;;10.00;99.50;;;;;;5020489;28;20524;-78
2023/04/21 23:14:21;;;;;;;6.55;3.80;;;10.00;99.90;;;;;;5026143;28;20045;-79
2023/04/21 23:16:47;;;;;;;6.40;3.70;;;9.90;99.90;;;;;;5025605;28;20030;-78
2023/04/21 23:19:12;;;;;;;7.72;3.97;;;9.90;99.90;;;;;;5015598;28;20207;-78
2023/04/21 23:21:39;;;;;;;7.68;3.63;;;9.80;99.90;;;;;;5030600;28;20030;-78
2023/04/21 23:24:05;;;;;;;5.95;3.92;;;9.80;99.90;;;;;;5043237;28;20410;-78
2023/04/21 23:26:30;;;;;;;8.05;3.97;;;9.70;99.90;;;;;;5006485;28;20033;-78
2023/04/21 23:28:56;;;;;;;9.88;4.00;;;9.70;99.90;;;;;;5033345;28;20113;-78
2023/04/21 23:31:22;;;;;;;8.75;4.20;;;9.70;99.90;;;;;;5024213;28;20037;-78
2023/04/21 23:33:48;;;;;;;6.45;3.95;;;9.70;99.90;;;;;;5028873;28;20044;-78
2023/04/21 23:36:13;;;;;;;5.35;3.58;;;9.70;99.90;;;;;;5030091;28;20041;-78
2023/04/21 23:38:39;;;;;;;6.90;4.38;;;9.60;99.90;;;;;;5021641;28;20103;-78
2023/04/21 23:41:05;;;;;;;6.22;4.03;;;9.60;99.90;;;;;;5025910;28;20050;-77
2023/04/21 23:43:33;;;;;;;4.78;3.50;;;9.70;99.90;;;;;;5027558;28;20030;-78
2023/04/21 23:45:59;;;;;;;8.88;3.97;;;9.60;99.90;;;;;;5024118;28;20374;-78
2023/04/21 23:48:24;;;;;;;7.15;3.78;;;9.60;99.90;;;;;;5025998;28;20053;-78
2023/04/21 23:50:50;;;;;;;6.40;3.90;;;9.60;99.90;;;;;;5032590;28;20024;-77
2023/04/21 23:53:16;;;;;;;6.15;4.20;;;9.60;99.90;;;;;;5031197;28;20520;-77
2023/04/21 23:55:42;;;;;;;5.20;3.60;;;9.60;99.90;;;;;;5031734;28;20038;-78
2023/04/21 23:58:07;;;;;;;9.90;3.88;;;9.50;99.90;;;;;;5027820;28;20030;-78
